createdAt,value
2023-01-09T00:00:35.997Z,1.50
2023-01-09T00:03:04.322Z,1.63
2023-01-09T00:05:31.194Z,2.53
2023-01-09T00:07:58.992Z,2.30
2023-01-09T00:10:25.848Z,1.80
2023-01-09T00:12:52.740Z,2.30
2023-01-09T00:15:19.747Z,2.23
2023-01-09T00:17:47.939Z,2.90
2023-01-09T00:20:17.750Z,3.33
2023-01-09T00:22:44.682Z,1.97
2023-01-09T00:25:11.576Z,2.30
2023-01-09T00:27:39.763Z,1.70
2023-01-09T00:30:08.882Z,3.23
2023-01-09T00:32:37.033Z,4.40
2023-01-09T00:35:04.719Z,4.17
2023-01-09T00:37:32.872Z,1.83
2023-01-09T00:39:59.765Z,2.60
2023-01-09T00:42:33.707Z,1.80
2023-01-09T00:45:07.735Z,1.83
2023-01-09T00:47:40.099Z,2.70
2023-01-09T00:50:14.351Z,2.43
2023-01-09T00:52:44.299Z,1.93
2023-01-09T00:55:12.636Z,1.80
2023-01-09T00:57:39.985Z,2.27
2023-01-09T01:00:09.576Z,2.13
2023-01-09T01:02:36.456Z,1.90
2023-01-09T01:05:24.221Z,4.43
2023-01-09T01:07:52.564Z,2.43
2023-01-09T01:10:22.580Z,1.90
2023-01-09T01:12:51.102Z,2.57
2023-01-09T01:15:19.415Z,2.60
2023-01-09T01:17:46.502Z,2.10
2023-01-09T01:20:18.268Z,2.10
2023-01-09T01:22:46.607Z,3.43
2023-01-09T01:25:17.922Z,2.70
2023-01-09T01:27:45.370Z,3.50
2023-01-09T01:30:16.008Z,3.70
2023-01-09T01:32:43.742Z,3.73
2023-01-09T01:35:12.149Z,2.77
2023-01-09T01:37:39.670Z,2.83
2023-01-09T01:40:09.992Z,2.40
2023-01-09T01:42:46.653Z,3.17
2023-01-09T01:45:16.052Z,3.17
2023-01-09T01:47:52.506Z,2.60
2023-01-09T01:50:29.910Z,3.63
2023-01-09T01:53:09.231Z,2.30
2023-01-09T01:55:42.769Z,2.33
2023-01-09T01:58:15.344Z,2.33
2023-01-09T02:00:46.854Z,2.80
2023-01-09T02:03:18.829Z,3.63
2023-01-09T02:05:45.792Z,2.60
2023-01-09T02:08:13.384Z,2.73
2023-01-09T02:10:40.931Z,2.70
2023-01-09T02:13:11.886Z,3.03
2023-01-09T02:15:56.875Z,2.60
2023-01-09T02:18:54.147Z,3.53
2023-01-09T02:21:38.937Z,2.63
2023-01-09T02:24:28.652Z,3.37
2023-01-09T02:27:58.416Z,2.77
2023-01-09T02:30:38.283Z,2.73
2023-01-09T02:33:32.260Z,3.87
2023-01-09T02:36:21.438Z,4.93
2023-01-09T02:39:10.771Z,2.60
2023-01-09T02:41:46.085Z,3.27
2023-01-09T02:44:20.235Z,3.17
2023-01-09T02:46:59.762Z,3.43
2023-01-09T02:49:27.529Z,2.77
2023-01-09T02:52:08.669Z,3.13
2023-01-09T02:54:53.466Z,2.90
2023-01-09T02:57:46.500Z,3.20
2023-01-09T03:00:34.429Z,2.73
2023-01-09T03:03:15.621Z,3.53
2023-01-09T03:05:52.411Z,3.43
2023-01-09T03:08:25.092Z,3.03
2023-01-09T03:10:59.836Z,5.47
2023-01-09T03:13:33.773Z,3.50
2023-01-09T03:16:07.728Z,3.30
2023-01-09T03:18:38.489Z,3.17
2023-01-09T03:21:08.669Z,3.73
2023-01-09T03:23:52.447Z,3.00
2023-01-09T03:26:19.662Z,2.80
2023-01-09T03:28:47.355Z,2.73
2023-01-09T03:31:15.229Z,3.37
2023-01-09T03:33:43.931Z,2.53
2023-01-09T03:36:12.979Z,2.67
2023-01-09T03:38:40.072Z,2.53
2023-01-09T03:41:07.214Z,3.10
2023-01-09T03:43:35.155Z,2.63
2023-01-09T03:46:02.577Z,4.70
2023-01-09T03:48:29.618Z,2.80
2023-01-09T03:50:57.947Z,2.40
2023-01-09T03:53:28.192Z,2.60
2023-01-09T03:55:57.558Z,2.20
2023-01-09T03:58:26.475Z,3.30
2023-01-09T04:00:58.920Z,3.93
2023-01-09T04:03:26.488Z,2.20
2023-01-09T04:05:53.409Z,3.00
2023-01-09T04:08:21.842Z,2.50
2023-01-09T04:10:50.694Z,2.30
2023-01-09T04:13:17.649Z,2.67
2023-01-09T04:15:44.785Z,1.90
2023-01-09T04:18:11.659Z,2.20
2023-01-09T04:20:38.561Z,2.30
2023-01-09T04:23:05.595Z,2.70
2023-01-09T04:25:34.208Z,2.10
2023-01-09T04:28:01.113Z,2.57
2023-01-09T04:30:27.998Z,2.70
2023-01-09T04:32:54.883Z,2.83
2023-01-09T04:35:21.857Z,1.73
2023-01-09T04:37:48.828Z,2.60
2023-01-09T04:40:15.890Z,2.07
2023-01-09T04:42:44.162Z,1.80
2023-01-09T04:45:12.390Z,1.90
2023-01-09T04:47:39.257Z,1.90
2023-01-09T04:50:06.747Z,1.67
2023-01-09T04:52:33.679Z,2.20
2023-01-09T04:55:00.566Z,2.27
2023-01-09T04:57:27.462Z,1.70
2023-01-09T04:59:55.653Z,2.10
2023-01-09T05:02:22.519Z,2.80
2023-01-09T05:04:49.396Z,2.03
2023-01-09T05:07:16.265Z,2.33
2023-01-09T05:09:43.996Z,3.17
2023-01-09T05:12:10.871Z,3.50
2023-01-09T05:14:37.805Z,2.40
2023-01-09T05:17:06.065Z,3.03
2023-01-09T05:19:34.405Z,3.33
2023-01-09T05:22:01.434Z,3.10
2023-01-09T05:24:28.425Z,3.07
2023-01-09T05:26:56.055Z,3.17
2023-01-09T05:29:23.015Z,3.03
2023-01-09T05:31:49.960Z,2.83
2023-01-09T05:34:18.205Z,2.67
2023-01-09T05:36:45.065Z,2.77
2023-01-09T05:39:12.354Z,1.80
2023-01-09T05:41:39.233Z,2.60
2023-01-09T05:44:06.140Z,2.30
2023-01-09T05:46:33.202Z,1.80
2023-01-09T05:49:00.147Z,2.13
2023-01-09T05:51:28.443Z,2.00
2023-01-09T05:53:55.313Z,2.50
2023-01-09T05:56:22.275Z,3.10
2023-01-09T05:58:49.157Z,1.93
2023-01-09T06:01:16.173Z,2.40
2023-01-09T06:03:43.098Z,2.30
2023-01-09T06:06:10.058Z,2.30
2023-01-09T06:08:38.237Z,2.00
2023-01-09T06:11:05.485Z,2.63
2023-01-09T06:13:32.445Z,3.23
2023-01-09T06:15:59.398Z,3.40
2023-01-09T06:18:26.370Z,1.93
2023-01-09T06:20:53.264Z,2.50
2023-01-09T06:23:20.133Z,2.93
2023-01-09T06:25:48.372Z,2.97
2023-01-09T06:28:15.237Z,3.67
2023-01-09T06:30:42.148Z,2.90
2023-01-09T06:33:09.053Z,3.50
2023-01-09T06:35:35.975Z,2.60
2023-01-09T06:38:03.345Z,3.03
2023-01-09T06:40:30.308Z,5.43
2023-01-09T06:42:58.525Z,8.30
2023-01-09T06:45:25.426Z,5.03
2023-01-09T06:47:52.576Z,4.80
2023-01-09T06:50:19.622Z,5.87
2023-01-09T06:52:46.533Z,6.20
2023-01-09T06:55:13.502Z,4.60
2023-01-09T06:57:46.770Z,4.13
2023-01-09T07:00:18.086Z,6.10
2023-01-09T07:02:49.160Z,4.80
2023-01-09T07:05:16.347Z,9.07
2023-01-09T07:07:43.407Z,4.70
2023-01-09T07:10:11.747Z,6.57
2023-01-09T07:12:38.628Z,6.60
2023-01-09T07:15:06.986Z,5.03
2023-01-09T07:17:35.456Z,7.07
2023-01-09T07:20:03.205Z,5.20
2023-01-09T07:22:30.318Z,6.20
2023-01-09T07:24:58.028Z,6.23
2023-01-09T07:27:33.750Z,6.50
2023-01-09T07:30:00.666Z,5.37
2023-01-09T07:32:28.972Z,4.83
2023-01-09T07:35:00.069Z,8.77
2023-01-09T07:37:27.203Z,6.57
2023-01-09T07:39:54.252Z,6.20
2023-01-09T07:42:21.169Z,10.73
2023-01-09T07:44:48.026Z,6.87
2023-01-09T07:47:14.986Z,7.00
2023-01-09T07:49:44.365Z,8.83
2023-01-09T07:52:12.918Z,7.43
2023-01-09T07:54:39.797Z,8.17
2023-01-09T07:57:07.089Z,9.63
2023-01-09T07:59:34.223Z,9.07
2023-01-09T08:02:02.489Z,6.50
2023-01-09T08:04:29.569Z,9.03
2023-01-09T08:06:56.938Z,10.93
2023-01-09T08:09:25.610Z,8.73
2023-01-09T08:11:53.196Z,9.27
2023-01-09T08:14:29.646Z,9.50
2023-01-09T08:16:59.404Z,7.60
2023-01-09T08:19:26.492Z,7.27
2023-01-09T08:21:53.860Z,5.80
2023-01-09T08:24:20.940Z,8.83
2023-01-09T08:26:50.452Z,9.50
2023-01-09T08:29:17.542Z,6.53
2023-01-09T08:31:44.721Z,8.50
2023-01-09T08:34:11.727Z,4.67
2023-01-09T08:36:38.855Z,6.37
2023-01-09T08:39:05.887Z,9.37
2023-01-09T08:41:51.847Z,6.87
2023-01-09T08:44:55.880Z,8.17
2023-01-09T08:47:24.796Z,5.70
2023-01-09T08:49:51.669Z,8.03
2023-01-09T08:52:18.650Z,6.97
2023-01-09T08:54:45.632Z,10.47
2023-01-09T08:57:12.667Z,8.30
2023-01-09T08:59:40.884Z,9.13
2023-01-09T09:02:07.952Z,7.77
2023-01-09T09:04:34.938Z,6.60
2023-01-09T09:07:01.807Z,7.60
2023-01-09T09:09:28.767Z,6.63
2023-01-09T09:11:55.802Z,7.60
2023-01-09T09:14:41.902Z,4.80
2023-01-09T09:17:10.164Z,6.40
2023-01-09T09:19:39.380Z,5.93
2023-01-09T09:22:06.673Z,6.53
2023-01-09T09:24:33.667Z,7.47
2023-01-09T09:27:01.021Z,4.93
2023-01-09T09:29:28.453Z,7.30
2023-01-09T09:31:55.427Z,4.33
2023-01-09T09:34:23.642Z,4.60
2023-01-09T09:36:50.743Z,5.37
2023-01-09T09:39:17.724Z,6.87
2023-01-09T09:42:40.354Z,8.37
2023-01-09T09:45:24.285Z,4.73
2023-01-09T09:48:04.398Z,6.10
2023-01-09T09:51:11.851Z,6.60
2023-01-09T09:53:53.560Z,5.83
2023-01-09T09:56:23.766Z,6.20
2023-01-09T09:58:56.509Z,6.23
2023-01-09T10:01:33.582Z,7.03
2023-01-09T10:04:07.637Z,8.27
2023-01-09T10:06:42.990Z,7.47
2023-01-09T10:09:24.194Z,6.00
2023-01-09T10:12:01.309Z,10.07
2023-01-09T10:14:31.627Z,6.90
2023-01-09T10:17:45.190Z,7.73
2023-01-09T10:20:39.497Z,6.67
2023-01-09T10:23:36.705Z,5.67
2023-01-09T10:26:11.941Z,5.97
2023-01-09T10:29:07.107Z,9.03
2023-01-09T10:31:52.998Z,7.93
2023-01-09T10:34:46.887Z,5.63
2023-01-09T10:37:20.216Z,8.47
2023-01-09T10:39:56.886Z,6.97
2023-01-09T10:42:33.352Z,9.03
2023-01-09T10:45:07.068Z,8.20
2023-01-09T10:47:37.200Z,8.03
2023-01-09T10:50:20.940Z,5.97
2023-01-09T10:52:51.210Z,10.13
2023-01-09T10:55:34.161Z,10.17
2023-01-09T10:58:10.719Z,7.33
2023-01-09T11:00:39.940Z,5.73
2023-01-09T11:03:12.938Z,7.20
2023-01-09T11:05:39.950Z,6.00
2023-01-09T11:08:23.710Z,7.67
2023-01-09T11:10:55.079Z,8.43
2023-01-09T11:13:24.193Z,7.10
2023-01-09T11:16:06.840Z,6.17
2023-01-09T11:18:38.202Z,7.33
2023-01-09T11:21:30.453Z,10.80
2023-01-09T11:24:26.358Z,5.27
2023-01-09T11:27:24.427Z,6.60
2023-01-09T11:30:15.670Z,5.90
2023-01-09T11:32:44.893Z,6.93
2023-01-09T11:35:23.763Z,5.97
2023-01-09T11:38:05.551Z,5.53
2023-01-09T11:40:45.818Z,6.67
2023-01-09T11:43:30.369Z,8.63
2023-01-09T11:46:01.828Z,6.23
2023-01-09T11:48:52.906Z,6.67
2023-01-09T11:51:23.536Z,6.57
2023-01-09T11:54:14.810Z,6.70
2023-01-09T11:56:42.705Z,7.27
2023-01-09T11:59:14.216Z,7.57
2023-01-09T12:02:41.198Z,5.73
2023-01-09T12:05:29.922Z,5.20
2023-01-09T12:08:17.949Z,4.93
2023-01-09T12:11:13.770Z,6.93
2023-01-09T12:14:07.796Z,7.40
2023-01-09T12:16:50.837Z,7.93
2023-01-09T12:19:51.161Z,5.93
2023-01-09T12:22:31.093Z,7.13
2023-01-09T12:25:18.002Z,3.90
2023-01-09T12:28:08.847Z,7.10
2023-01-09T12:30:55.479Z,4.33
2023-01-09T12:33:42.814Z,6.00
2023-01-09T12:36:23.023Z,7.03
2023-01-09T12:38:56.151Z,3.83
2023-01-09T12:41:53.870Z,7.50
2023-01-09T12:44:38.444Z,4.30
2023-01-09T12:47:45.828Z,4.53
2023-01-09T12:50:54.316Z,6.10
2023-01-09T12:53:25.802Z,5.30
2023-01-09T12:56:03.596Z,5.63
2023-01-09T12:58:44.701Z,6.87
2023-01-09T13:01:19.723Z,3.40
2023-01-09T13:03:58.553Z,4.80
2023-01-09T13:06:29.577Z,3.17
2023-01-09T13:09:13.152Z,4.57
2023-01-09T13:11:48.801Z,2.47
2023-01-09T13:14:25.339Z,3.47
2023-01-09T13:16:56.175Z,2.13
2023-01-09T13:19:29.104Z,2.30
2023-01-09T13:21:58.855Z,2.20
2023-01-09T13:24:36.736Z,2.33
2023-01-09T13:27:11.026Z,2.87
2023-01-09T13:29:42.301Z,3.27
2023-01-09T13:32:33.447Z,2.10
2023-01-09T13:35:03.944Z,1.70
2023-01-09T13:37:36.467Z,1.83
2023-01-09T13:40:26.505Z,1.90
2023-01-09T13:42:57.752Z,3.43
2023-01-09T13:45:28.020Z,2.97
2023-01-09T13:48:37.182Z,3.47
2023-01-09T13:51:58.500Z,2.90
2023-01-09T13:55:23.823Z,2.50
2023-01-09T13:58:22.547Z,2.67
2023-01-09T14:01:00.082Z,2.93
2023-01-09T14:03:34.221Z,3.23
2023-01-09T14:06:19.195Z,3.73
2023-01-09T14:08:49.727Z,3.37
2023-01-09T14:11:27.225Z,3.43
2023-01-09T14:14:17.454Z,3.57
2023-01-09T14:16:45.021Z,4.43
2023-01-09T14:19:32.868Z,3.47
2023-01-09T14:22:01.521Z,4.10
2023-01-09T14:24:33.310Z,3.93
2023-01-09T14:27:02.208Z,3.57
2023-01-09T14:29:43.387Z,3.07
2023-01-09T14:32:43.603Z,3.80
2023-01-09T14:35:24.096Z,2.90
2023-01-09T14:38:04.937Z,2.70
2023-01-09T14:40:33.900Z,3.33
2023-01-09T14:43:22.452Z,4.03
2023-01-09T14:45:50.250Z,3.37
2023-01-09T14:48:18.172Z,3.83
2023-01-09T14:50:55.146Z,4.13
2023-01-09T14:53:28.377Z,3.73
2023-01-09T14:55:57.693Z,5.70
2023-01-09T14:58:28.340Z,5.90
2023-01-09T15:01:02.349Z,4.53
2023-01-09T15:03:37.176Z,4.20
2023-01-09T15:06:05.781Z,4.07
2023-01-09T15:08:33.664Z,4.87
2023-01-09T15:11:00.884Z,4.53
2023-01-09T15:13:37.435Z,3.07
2023-01-09T15:16:07.271Z,3.53
2023-01-09T15:18:42.740Z,6.57
2023-01-09T15:21:18.837Z,4.70
2023-01-09T15:23:45.796Z,5.67
2023-01-09T15:26:23.229Z,5.40
2023-01-09T15:28:59.762Z,6.63
2023-01-09T15:31:28.539Z,6.37
2023-01-09T15:33:56.645Z,6.37
2023-01-09T15:36:27.024Z,5.30
2023-01-09T15:38:55.096Z,6.67
2023-01-09T15:41:46.316Z,6.87
2023-01-09T15:44:20.381Z,5.93
2023-01-09T15:46:50.063Z,5.73
2023-01-09T15:49:18.824Z,6.73
2023-01-09T15:51:48.569Z,6.23
2023-01-09T15:54:20.653Z,6.33
2023-01-09T15:56:47.633Z,5.47
2023-01-09T15:59:28.605Z,5.53
2023-01-09T16:02:20.848Z,6.17
2023-01-09T16:04:49.895Z,6.70
2023-01-09T16:07:20.793Z,5.80
2023-01-09T16:09:52.679Z,6.10
2023-01-09T16:12:25.229Z,6.50
2023-01-09T16:14:57.666Z,5.83
2023-01-09T16:17:26.595Z,8.03
2023-01-09T16:19:55.957Z,7.40
2023-01-09T16:22:25.825Z,6.70
2023-01-09T16:24:54.781Z,8.10
2023-01-09T16:27:25.973Z,7.33
2023-01-09T16:29:57.943Z,6.97
2023-01-09T16:32:29.699Z,8.13
2023-01-09T16:34:59.736Z,7.73
2023-01-09T16:37:28.094Z,6.60
2023-01-09T16:40:31.682Z,7.60
2023-01-09T16:43:01.393Z,7.70
2023-01-09T16:45:34.413Z,8.70
2023-01-09T16:48:02.085Z,7.87
2023-01-09T16:50:29.251Z,7.63
2023-01-09T16:52:57.261Z,6.93
2023-01-09T16:55:24.470Z,7.20
2023-01-09T16:57:51.668Z,7.40
2023-01-09T17:00:21.177Z,8.30
2023-01-09T17:02:50.436Z,7.63
2023-01-09T17:05:18.428Z,7.40
2023-01-09T17:07:45.362Z,9.40
2023-01-09T17:10:22.130Z,7.73
2023-01-09T17:12:49.388Z,8.57
2023-01-09T17:15:16.604Z,7.90
2023-01-09T17:17:43.501Z,8.07
2023-01-09T17:20:17.842Z,8.43
2023-01-09T17:22:45.009Z,8.13
2023-01-09T17:25:34.874Z,9.17
2023-01-09T17:28:22.439Z,8.80
2023-01-09T17:30:49.407Z,9.13
2023-01-09T17:33:19.781Z,8.57
2023-01-09T17:35:48.285Z,8.20
2023-01-09T17:38:16.263Z,8.97
2023-01-09T17:40:44.438Z,10.83
2023-01-09T17:43:12.203Z,8.93
2023-01-09T17:45:41.199Z,10.00
2023-01-09T17:48:15.430Z,10.10
2023-01-09T17:50:43.144Z,10.73
2023-01-09T17:53:11.769Z,10.33
2023-01-09T17:55:39.867Z,9.03
2023-01-09T17:58:07.546Z,8.93
2023-01-09T18:00:36.911Z,9.03
2023-01-09T18:03:05.139Z,9.93
2023-01-09T18:05:32.154Z,8.37
2023-01-09T18:07:59.141Z,8.90
2023-01-09T18:10:27.951Z,7.10
2023-01-09T18:12:56.087Z,7.97
2023-01-09T18:15:24.395Z,9.87
2023-01-09T18:17:51.940Z,7.60
2023-01-09T18:20:19.234Z,8.77
2023-01-09T18:22:47.462Z,8.87
2023-01-09T18:25:14.406Z,8.53
2023-01-09T18:27:44.846Z,8.33
2023-01-09T18:30:12.647Z,7.87
2023-01-09T18:32:39.515Z,8.50
2023-01-09T18:35:08.764Z,8.33
2023-01-09T18:37:36.832Z,8.63
2023-01-09T18:40:05.008Z,10.70
2023-01-09T18:42:31.870Z,9.53
2023-01-09T18:45:00.041Z,9.23
2023-01-09T18:47:27.110Z,8.30
2023-01-09T18:49:54.006Z,8.30
2023-01-09T18:52:20.883Z,9.90
2023-01-09T18:54:47.799Z,9.97
2023-01-09T18:57:14.671Z,8.47
2023-01-09T18:59:41.565Z,9.13
2023-01-09T19:02:19.480Z,10.37
2023-01-09T19:04:46.630Z,10.50
2023-01-09T19:07:13.645Z,11.40
2023-01-09T19:09:40.741Z,10.87
2023-01-09T19:12:08.091Z,11.10
2023-01-09T19:14:35.002Z,9.80
2023-01-09T19:17:01.887Z,12.23
2023-01-09T19:19:30.244Z,12.60
2023-01-09T19:21:58.093Z,10.77
2023-01-09T19:24:25.787Z,11.63
2023-01-09T19:26:52.756Z,11.80
2023-01-09T19:29:19.723Z,11.37
2023-01-09T19:31:47.456Z,15.70
2023-01-09T19:34:15.868Z,10.60
2023-01-09T19:36:44.610Z,11.87
2023-01-09T19:39:11.642Z,11.93
2023-01-09T19:41:38.594Z,12.23
2023-01-09T19:44:05.918Z,10.77
2023-01-09T19:46:36.492Z,14.50
2023-01-09T19:49:04.961Z,12.07
2023-01-09T19:51:33.222Z,14.30
2023-01-09T19:56:30.491Z,16.53
2023-01-09T19:58:59.858Z,12.17
2023-01-09T20:01:30.073Z,11.57
2023-01-09T20:04:02.673Z,12.60
2023-01-09T20:06:31.036Z,14.30
2023-01-09T20:09:02.222Z,11.33
2023-01-09T20:11:32.127Z,13.00
2023-01-09T20:14:00.105Z,8.83
2023-01-09T20:16:30.403Z,9.47
2023-01-09T20:19:00.192Z,11.60
2023-01-09T20:21:28.957Z,8.43
2023-01-09T20:23:59.940Z,10.23
2023-01-09T20:26:29.122Z,7.70
2023-01-09T20:28:56.634Z,11.53
2023-01-09T20:31:28.104Z,12.47
2023-01-09T20:33:55.433Z,7.97
2023-01-09T20:36:27.326Z,12.00
2023-01-09T20:38:55.286Z,9.17
2023-01-09T20:41:22.603Z,11.73
2023-01-09T20:43:54.573Z,5.17
2023-01-09T20:46:25.724Z,6.07
2023-01-09T20:48:56.097Z,9.70
2023-01-09T20:51:23.398Z,8.60
2023-01-09T20:53:58.191Z,9.90
2023-01-09T20:56:26.632Z,8.40
2023-01-09T20:58:55.746Z,10.20
2023-01-09T21:01:24.490Z,7.60
2023-01-09T21:03:53.009Z,9.60
2023-01-09T21:06:22.284Z,10.33
2023-01-09T21:08:53.133Z,9.73
2023-01-09T21:11:21.590Z,7.43
2023-01-09T21:13:48.678Z,10.67
2023-01-09T21:16:21.421Z,7.33
2023-01-09T21:18:49.300Z,11.30
2023-01-09T21:21:20.289Z,7.27
2023-01-09T21:23:51.676Z,8.97
2023-01-09T21:26:22.373Z,11.20
2023-01-09T21:28:50.335Z,12.70
2023-01-09T21:31:24.680Z,9.30
2023-01-09T21:33:54.337Z,9.90
2023-01-09T21:36:21.871Z,10.73
2023-01-09T21:38:52.000Z,12.77
2023-01-09T21:41:39.770Z,7.87
2023-01-09T21:44:28.872Z,11.33
2023-01-09T21:46:58.144Z,8.83
2023-01-09T21:49:28.604Z,12.03
2023-01-09T21:51:55.976Z,12.13
2023-01-09T21:54:23.886Z,7.87
2023-01-09T21:56:51.078Z,10.13
2023-01-09T21:59:18.608Z,11.87
2023-01-09T22:01:47.671Z,10.77
2023-01-09T22:04:18.260Z,13.27
2023-01-09T22:06:45.530Z,10.83
2023-01-09T22:09:12.989Z,11.83
2023-01-09T22:11:42.718Z,15.40
2023-01-09T22:14:13.121Z,10.73
2023-01-09T22:16:40.630Z,12.43
2023-01-09T22:19:07.588Z,15.20
2023-01-09T22:21:36.166Z,13.40
2023-01-09T22:24:05.057Z,11.60
2023-01-09T22:26:34.060Z,11.23
2023-01-09T22:29:01.025Z,14.80
2023-01-09T22:31:32.657Z,12.37
2023-01-09T22:34:02.340Z,14.57
2023-01-09T22:36:31.180Z,13.17
2023-01-09T22:39:01.184Z,14.63
2023-01-09T22:41:31.858Z,11.27
2023-01-09T22:43:59.434Z,13.50
2023-01-09T22:46:26.432Z,10.80
2023-01-09T22:48:53.341Z,10.40
2023-01-09T22:51:21.606Z,14.67
2023-01-09T22:53:49.430Z,9.97
2023-01-09T22:56:20.618Z,13.37
2023-01-09T22:58:51.312Z,14.50
2023-01-09T23:01:18.656Z,17.07
2023-01-09T23:03:45.931Z,12.00
2023-01-09T23:06:16.189Z,12.37
2023-01-09T23:08:44.134Z,11.13
2023-01-09T23:11:15.996Z,11.77
2023-01-09T23:13:44.165Z,16.50
2023-01-09T23:16:11.208Z,9.30
2023-01-09T23:18:38.156Z,15.57
2023-01-09T23:21:05.599Z,11.10
2023-01-09T23:23:33.174Z,8.37
2023-01-09T23:26:04.798Z,10.73
2023-01-09T23:28:31.701Z,16.57
2023-01-09T23:30:59.938Z,12.43
2023-01-09T23:33:26.795Z,15.10
2023-01-09T23:35:53.671Z,16.23
2023-01-09T23:38:20.682Z,17.33
2023-01-09T23:40:47.722Z,11.33
2023-01-09T23:43:15.656Z,11.47
2023-01-09T23:45:45.148Z,13.73
2023-01-09T23:48:16.725Z,8.50
2023-01-09T23:50:48.713Z,12.60
2023-01-09T23:53:16.017Z,14.00
2023-01-09T23:55:42.953Z,13.17
2023-01-09T23:58:09.900Z,10.50
